Jasper, Texas
Current Conditions -  °F | °C
As of 5:55 PM on Monday 20 Oct 2014 (Local Time) from KJAS Reporting Station
Clear Clear  
Wind Chill: 75°   Ceiling: Unl
Heat Index: 75°   Visibility: 10mi
Dew Point: 53°   Wind: 7mph
Humidity: 46%   Direction: 30°NNE
Pressure: 30.04"   Gusts: NA
Location:  30.92°N, 94°W
Report Text: KJAS 202255Z AUTO 03006KT 10SM CLR 24/12 A3004 RMK AO2 T02380115
Loading
Personal Weather Stations






























Interactive Weather Map
Tropical Storm Tracking
New forecast layout! Learn more

10-Day Weather Forecast

Advertisements
Track Severe Weather on mobile